KSNL/SNL METAR and TAF weather

Enter ICAO airport designator
Station Type Date Time Source
KSNL METAR 2019/08/20 09:35 UTC NOAA

KSNL 200935Z AUTO 19005KT 10SM CLR 24/21 A3000 RMK AO2 T02410208


Station Type Date Time Source
KSNL Decoded METAR 2019/08/20 09:35 UTC NOAA

Shawnee, Shawnee Municipal Airport, OK, United States (KSNL) 35-21-26N 096-56-34W
Aug 20, 2019 - 05:35 AM EDT / 2019.08.20 0935 UTC
Wind: from the S (190 degrees) at 6 MPH (5 KT):0
Visibility: 10 mile(s):0
Sky conditions: clear
Temperature: 75.4 F (24.1 C)
Dew Point: 69.4 F (20.8 C)
Relative Humidity: 81%
Pressure (altimeter): 30 in. Hg (1015 hPa)
ob: KSNL 200935Z AUTO 19005KT 10SM CLR 24/21 A3000 RMK AO2 T02410208
cycle: 9

Station Type Date Time Source
KSNL TAF UTC NOAA

Error!

Example: see airport list